Time;durP1;ratioP1;P1;durP2;ratioP2;P2;SDS_P1;SDS_P2;PMS_P1;PMS_P2;Temp;Humidity;BMP_temperature;BMP_pressure;BME280_temperature;BME280_humidity;BME280_pressure;Samples;Min_cycle;Max_cycle;Signal;HPM_P1;HPM_P2
2023/12/15 00:00:18;;;;;;;31.13;18.63;;;5.90;99.90;;;;;;5019703;28;20041;-68
2023/12/15 00:02:45;;;;;;;32.28;19.48;;;6.00;99.90;;;;;;5015809;28;20411;-67
2023/12/15 00:05:11;;;;;;;26.85;18.25;;;5.90;99.90;;;;;;5015498;28;20050;-67
2023/12/15 00:07:36;;;;;;;29.58;18.73;;;6.00;99.90;;;;;;5003943;28;20079;-68
2023/12/15 00:10:02;;;;;;;29.40;18.90;;;6.00;99.90;;;;;;5015459;28;20084;-67
2023/12/15 00:12:28;;;;;;;28.75;19.70;;;6.00;99.90;;;;;;5014876;28;20037;-67
2023/12/15 00:14:53;;;;;;;36.20;20.77;;;6.00;99.90;;;;;;5014971;28;20045;-67
2023/12/15 00:17:19;;;;;;;31.02;20.80;;;6.10;99.90;;;;;;5015694;28;20033;-67
2023/12/15 00:19:44;;;;;;;32.75;20.88;;;6.10;99.90;;;;;;5014667;28;20050;-68
2023/12/15 00:22:10;;;;;;;30.30;20.95;;;6.10;99.90;;;;;;5020791;28;20041;-68
2023/12/15 00:24:36;;;;;;;32.00;20.58;;;6.40;99.90;;;;;;5013126;28;20048;-67
2023/12/15 00:27:02;;;;;;;32.13;20.67;;;6.20;99.90;;;;;;5019837;28;20045;-67
2023/12/15 00:29:27;;;;;;;33.20;21.08;;;6.20;99.90;;;;;;5014218;28;20068;-67
2023/12/15 00:31:53;;;;;;;32.10;20.80;;;6.20;99.90;;;;;;5013767;28;20496;-67
2023/12/15 00:34:18;;;;;;;34.40;21.63;;;6.10;99.90;;;;;;5020345;28;20121;-67
2023/12/15 00:36:44;;;;;;;37.92;22.50;;;6.20;99.90;;;;;;5011314;28;20366;-67
2023/12/15 00:39:10;;;;;;;33.55;21.75;;;6.20;99.90;;;;;;5019216;28;20125;-67
2023/12/15 00:41:35;;;;;;;35.95;23.10;;;6.20;99.90;;;;;;4998513;28;20092;-68
2023/12/15 00:44:03;;;;;;;40.00;23.38;;;6.20;99.90;;;;;;5020512;28;20077;-68
2023/12/15 00:46:28;;;;;;;41.30;24.35;;;6.30;99.90;;;;;;5012624;28;20050;-67
2023/12/15 00:48:54;;;;;;;42.28;23.70;;;6.20;99.90;;;;;;5017700;28;20088;-67
2023/12/15 00:51:20;;;;;;;45.50;25.08;;;6.20;99.90;;;;;;5010485;28;20045;-67
2023/12/15 00:53:45;;;;;;;42.30;24.83;;;6.20;99.90;;;;;;5013310;28;20085;-67
2023/12/15 00:56:11;;;;;;;40.70;25.70;;;6.30;99.90;;;;;;5015360;28;20061;-67
2023/12/15 00:58:37;;;;;;;40.38;24.52;;;6.30;99.90;;;;;;5013607;28;20480;-68
2023/12/15 01:01:02;;;;;;;38.05;24.85;;;6.30;99.90;;;;;;5015721;28;20030;-67
2023/12/15 01:03:30;;;;;;;46.10;24.88;;;6.30;99.90;;;;;;5016577;28;20055;-67
2023/12/15 01:05:56;;;;;;;37.20;25.30;;;6.30;99.90;;;;;;5019460;28;20495;-67
2023/12/15 01:08:24;;;;;;;41.20;27.13;;;6.30;99.90;;;;;;5015478;28;20046;-67
2023/12/15 01:10:50;;;;;;;46.90;25.80;;;6.30;99.90;;;;;;5014687;28;20037;-67
2023/12/15 01:13:16;;;;;;;42.78;25.33;;;6.30;99.90;;;;;;5015778;28;20788;-67
2023/12/15 01:15:41;;;;;;;37.38;26.00;;;6.30;99.90;;;;;;5013601;28;20132;-67
2023/12/15 01:18:07;;;;;;;49.92;27.38;;;6.40;99.90;;;;;;5013271;28;20052;-67
2023/12/15 01:20:33;;;;;;;49.42;27.52;;;6.40;99.90;;;;;;5011384;28;20129;-67
2023/12/15 01:22:59;;;;;;;43.20;26.50;;;6.40;99.90;;;;;;5014142;28;20057;-67
2023/12/15 01:25:26;;;;;;;45.85;28.95;;;6.40;99.90;;;;;;5015920;28;20069;-67
2023/12/15 01:27:51;;;;;;;52.10;28.17;;;6.40;99.90;;;;;;5015867;28;20464;-67
2023/12/15 01:30:17;;;;;;;43.78;27.85;;;6.60;99.90;;;;;;5011966;28;20053;-67
2023/12/15 01:32:42;;;;;;;48.00;28.52;;;6.40;99.90;;;;;;5016888;28;20034;-67
2023/12/15 01:35:08;;;;;;;48.70;30.02;;;6.50;99.90;;;;;;5012778;28;20041;-67
2023/12/15 01:37:34;;;;;;;49.13;29.17;;;6.50;99.90;;;;;;5013670;28;20081;-67
2023/12/15 01:40:00;;;;;;;47.38;29.98;;;6.50;99.90;;;;;;5016673;28;20037;-67
2023/12/15 01:42:26;;;;;;;56.10;29.20;;;6.50;99.90;;;;;;5017542;28;20065;-67
2023/12/15 01:44:52;;;;;;;53.63;29.98;;;6.50;99.90;;;;;;5020577;28;21158;-67
2023/12/15 01:47:18;;;;;;;45.85;29.90;;;6.50;99.90;;;;;;5021430;28;20048;-67
2023/12/15 01:49:47;;;;;;;57.10;30.27;;;6.60;99.90;;;;;;5019659;28;20056;-67
2023/12/15 01:52:12;;;;;;;55.72;31.38;;;6.50;99.90;;;;;;5018603;28;20282;-67
2023/12/15 01:54:38;;;;;;;53.60;31.55;;;6.60;99.90;;;;;;5020755;28;20368;-67
2023/12/15 01:57:06;;;;;;;53.30;30.88;;;6.60;99.90;;;;;;5015886;28;20045;-67
2023/12/15 01:59:45;;;;;;;50.42;32.55;;;6.60;99.90;;;;;;5036407;28;20374;-67
2023/12/15 02:02:11;;;;;;;60.53;30.98;;;6.60;99.90;;;;;;5020591;28;20056;-68
2023/12/15 02:04:37;;;;;;;54.08;31.38;;;6.60;99.90;;;;;;5016373;28;20041;-68
2023/12/15 02:07:03;;;;;;;59.58;30.70;;;6.60;99.90;;;;;;5019117;28;20041;-66
2023/12/15 02:09:29;;;;;;;55.10;31.42;;;6.70;99.90;;;;;;5018109;28;20034;-67
2023/12/15 02:11:55;;;;;;;56.67;32.67;;;6.70;99.90;;;;;;5019864;28;20440;-67
2023/12/15 02:14:20;;;;;;;57.25;33.13;;;6.70;99.90;;;;;;5016968;28;20293;-67
2023/12/15 02:16:46;;;;;;;57.70;32.38;;;7.00;99.90;;;;;;5036001;28;20037;-67
2023/12/15 02:19:12;;;;;;;60.05;33.28;;;6.80;99.90;;;;;;5016833;28;20033;-67
2023/12/15 02:21:37;;;;;;;56.20;32.10;;;6.70;99.90;;;;;;5033811;28;20049;-67
2023/12/15 02:24:04;;;;;;;56.28;31.27;;;6.70;99.90;;;;;;4997295;28;20079;-68
2023/12/15 02:26:30;;;;;;;58.38;34.30;;;6.70;99.90;;;;;;5016914;28;20179;-68
2023/12/15 02:28:55;;;;;;;52.72;31.67;;;6.80;99.90;;;;;;5016416;28;20452;-67
2023/12/15 02:31:21;;;;;;;55.42;32.50;;;6.80;99.90;;;;;;5018401;28;20046;-68
2023/12/15 02:33:48;;;;;;;59.72;31.67;;;6.80;99.90;;;;;;5021336;28;20042;-67
2023/12/15 02:36:20;;;;;;;50.15;31.55;;;6.80;99.90;;;;;;5016841;28;20435;-68
2023/12/15 02:38:46;;;;;;;53.95;31.15;;;6.80;99.90;;;;;;5018886;28;20037;-67
2023/12/15 02:41:12;;;;;;;51.10;30.23;;;6.80;99.90;;;;;;5016754;28;20042;-68
2023/12/15 02:43:38;;;;;;;50.50;31.42;;;6.80;99.90;;;;;;5020197;28;20041;-67
2023/12/15 02:46:05;;;;;;;60.30;31.35;;;6.80;99.90;;;;;;5013404;28;20797;-67
2023/12/15 02:48:30;;;;;;;50.50;28.67;;;6.80;99.90;;;;;;5020820;28;20084;-68
2023/12/15 02:50:56;;;;;;;51.40;31.17;;;6.80;99.90;;;;;;5017605;28;20124;-67
2023/12/15 02:53:22;;;;;;;51.75;29.52;;;6.80;99.90;;;;;;5016158;28;20768;-67
2023/12/15 02:55:47;;;;;;;53.70;30.95;;;6.90;99.90;;;;;;5015862;28;20037;-67
2023/12/15 02:58:13;;;;;;;57.70;30.98;;;6.90;99.90;;;;;;5017645;28;20033;-67
2023/12/15 03:00:38;;;;;;;51.05;30.17;;;6.90;99.90;;;;;;5015507;28;20045;-67
2023/12/15 03:03:04;;;;;;;56.95;32.20;;;6.80;99.90;;;;;;5016580;28;20029;-68
2023/12/15 03:05:30;;;;;;;55.35;29.77;;;6.90;99.90;;;;;;5017246;28;20584;-67
2023/12/15 03:07:56;;;;;;;53.17;29.98;;;6.90;99.90;;;;;;5015079;28;20053;-67
2023/12/15 03:10:21;;;;;;;53.97;31.25;;;6.90;99.90;;;;;;5020751;28;20037;-67
2023/12/15 03:12:47;;;;;;;58.65;30.65;;;6.90;99.90;;;;;;5015344;28;20045;-67
2023/12/15 03:15:13;;;;;;;49.58;30.30;;;6.80;99.90;;;;;;5015980;28;20039;-67
2023/12/15 03:17:39;;;;;;;48.88;29.30;;;6.90;99.90;;;;;;5016356;28;20476;-68
2023/12/15 03:20:06;;;;;;;52.05;29.90;;;6.90;99.90;;;;;;5020463;28;20049;-68
2023/12/15 03:22:32;;;;;;;52.15;28.98;;;6.90;99.90;;;;;;5018757;28;20110;-68
2023/12/15 03:24:58;;;;;;;58.78;30.67;;;6.90;99.90;;;;;;5020641;28;20041;-68
2023/12/15 03:27:24;;;;;;;52.35;28.67;;;6.90;99.90;;;;;;4999414;28;20407;-68
2023/12/15 03:29:50;;;;;;;55.65;29.30;;;6.70;99.90;;;;;;5018462;28;20404;-67
2023/12/15 03:32:15;;;;;;;51.30;29.38;;;6.90;99.90;;;;;;5018239;28;20046;-67
2023/12/15 03:34:41;;;;;;;57.10;29.70;;;6.90;99.90;;;;;;5018555;28;20037;-67
2023/12/15 03:37:08;;;;;;;54.50;30.33;;;6.90;99.90;;;;;;5019192;28;20598;-68
2023/12/15 03:39:35;;;;;;;52.70;29.02;;;6.90;99.90;;;;;;5019329;28;20106;-68
2023/12/15 03:42:06;;;;;;;51.97;28.40;;;6.90;99.90;;;;;;5017297;28;20488;-68
2023/12/15 03:44:33;;;;;;;53.40;28.60;;;6.90;99.90;;;;;;5019259;28;20056;-67
2023/12/15 03:46:59;;;;;;;48.58;29.63;;;6.90;99.90;;;;;;5012931;28;20037;-68
2023/12/15 03:49:25;;;;;;;56.65;29.30;;;6.90;99.90;;;;;;5015443;28;20413;-68
2023/12/15 03:51:50;;;;;;;49.05;28.25;;;6.90;99.90;;;;;;4999621;28;20045;-68
2023/12/15 03:54:16;;;;;;;56.47;28.65;;;7.00;99.90;;;;;;5018394;28;20160;-68
2023/12/15 03:56:41;;;;;;;54.65;28.75;;;6.90;99.90;;;;;;5014536;28;20040;-67
2023/12/15 03:59:07;;;;;;;61.22;28.58;;;6.90;99.90;;;;;;5020728;28;20033;-67
2023/12/15 04:01:32;;;;;;;53.28;28.77;;;6.90;99.90;;;;;;5016605;28;20037;-68
2023/12/15 04:03:58;;;;;;;52.95;28.02;;;6.90;99.90;;;;;;5016829;28;20207;-68
2023/12/15 04:06:24;;;;;;;55.00;27.55;;;6.90;99.90;;;;;;5016125;28;20046;-68
2023/12/15 04:08:50;;;;;;;57.63;28.15;;;6.90;99.90;;;;;;5019217;28;20041;-67
2023/12/15 04:11:16;;;;;;;46.47;28.17;;;7.50;99.90;;;;;;5017247;28;20054;-68
2023/12/15 04:13:42;;;;;;;54.25;28.95;;;6.90;99.90;;;;;;5001401;28;20049;-68
2023/12/15 04:16:08;;;;;;;56.70;28.42;;;6.90;99.90;;;;;;5017895;28;20384;-68
2023/12/15 04:18:34;;;;;;;49.22;27.90;;;6.90;99.90;;;;;;4995131;28;20044;-67
2023/12/15 04:21:03;;;;;;;68.38;29.98;;;6.80;99.90;;;;;;5021215;28;20072;-67
2023/12/15 04:23:28;;;;;;;52.35;27.73;;;6.90;99.90;;;;;;5015375;28;20053;-68
2023/12/15 04:25:57;;;;;;;57.42;28.13;;;6.90;99.90;;;;;;5019283;28;20045;-68
2023/12/15 04:28:24;;;;;;;50.22;27.48;;;6.80;99.90;;;;;;5016052;28;20088;-68
2023/12/15 04:30:50;;;;;;;46.60;26.33;;;6.80;99.90;;;;;;5013688;28;20048;-68
2023/12/15 04:33:15;;;;;;;54.15;26.52;;;6.80;99.90;;;;;;5013638;28;20484;-68
2023/12/15 04:35:41;;;;;;;52.20;27.25;;;6.80;99.90;;;;;;5016104;28;20116;-68
2023/12/15 04:38:06;;;;;;;55.25;27.00;;;6.80;99.90;;;;;;5014803;28;20045;-68
2023/12/15 04:40:32;;;;;;;49.78;26.38;;;6.80;99.90;;;;;;5016571;28;20048;-68
2023/12/15 04:42:57;;;;;;;55.00;28.27;;;6.80;99.90;;;;;;5017765;28;20041;-68
2023/12/15 04:45:23;;;;;;;48.22;24.80;;;6.70;99.90;;;;;;5015720;28;20045;-68
2023/12/15 04:47:49;;;;;;;44.92;24.73;;;6.80;99.90;;;;;;5017816;28;20554;-69
2023/12/15 04:50:14;;;;;;;54.38;27.48;;;6.80;99.90;;;;;;5014551;28;20095;-68
2023/12/15 04:52:40;;;;;;;47.22;25.20;;;6.80;99.90;;;;;;5014721;28;20400;-67
2023/12/15 04:55:06;;;;;;;49.08;25.80;;;6.70;99.90;;;;;;5019182;28;20094;-68
2023/12/15 04:57:31;;;;;;;50.17;26.40;;;6.80;99.90;;;;;;5015194;28;20549;-68
2023/12/15 04:59:57;;;;;;;50.42;25.67;;;6.70;99.90;;;;;;5015209;28;20533;-68
2023/12/15 05:02:23;;;;;;;46.47;25.15;;;6.80;99.90;;;;;;5015697;28;20037;-67
2023/12/15 05:04:48;;;;;;;48.47;24.05;;;6.70;99.90;;;;;;4997172;28;20038;-67
2023/12/15 05:07:14;;;;;;;45.47;23.42;;;6.80;99.90;;;;;;5014366;28;20133;-67
2023/12/15 05:09:39;;;;;;;43.75;23.42;;;6.70;99.90;;;;;;5015493;28;20044;-68
2023/12/15 05:12:06;;;;;;;49.15;24.05;;;6.80;99.90;;;;;;5014389;28;20042;-68
2023/12/15 05:14:31;;;;;;;44.13;24.23;;;6.70;99.90;;;;;;5019778;28;20048;-68
2023/12/15 05:16:57;;;;;;;46.67;24.40;;;6.60;99.90;;;;;;5020030;28;20037;-68
2023/12/15 05:19:22;;;;;;;49.72;24.63;;;6.70;99.90;;;;;;5018374;28;20053;-68
2023/12/15 05:21:48;;;;;;;46.30;24.13;;;6.60;99.90;;;;;;5018132;28;20077;-68
2023/12/15 05:24:15;;;;;;;48.92;24.73;;;6.60;99.90;;;;;;5019509;28;20415;-68
2023/12/15 05:26:40;;;;;;;41.30;23.02;;;6.60;99.90;;;;;;5020946;28;20120;-68
2023/12/15 05:29:06;;;;;;;42.92;24.35;;;6.60;99.90;;;;;;5016373;28;20124;-68
2023/12/15 05:31:31;;;;;;;47.22;25.60;;;6.60;99.90;;;;;;5016372;28;20049;-68
2023/12/15 05:33:57;;;;;;;50.60;25.45;;;6.50;99.90;;;;;;5012870;28;20038;-67
2023/12/15 05:36:23;;;;;;;46.88;25.73;;;6.50;99.90;;;;;;5020761;28;20092;-67
2023/12/15 05:38:49;;;;;;;51.72;26.65;;;6.50;99.90;;;;;;5020878;28;20073;-67
2023/12/15 05:41:14;;;;;;;47.03;26.00;;;6.50;99.90;;;;;;5024070;28;20049;-67
2023/12/15 05:43:40;;;;;;;54.42;28.10;;;6.50;99.90;;;;;;5026190;28;20052;-67
2023/12/15 05:46:06;;;;;;;51.67;25.80;;;6.40;99.90;;;;;;5022579;28;20041;-68
2023/12/15 05:48:32;;;;;;;48.15;25.85;;;6.50;99.90;;;;;;5026362;28;20132;-67
2023/12/15 05:50:58;;;;;;;44.80;25.17;;;6.50;99.90;;;;;;5019455;28;20092;-68
2023/12/15 05:53:23;;;;;;;43.22;25.10;;;6.50;99.90;;;;;;5021292;28;20045;-67
2023/12/15 05:55:49;;;;;;;52.53;25.45;;;6.50;99.90;;;;;;5013326;28;20075;-68
2023/12/15 05:58:14;;;;;;;50.10;23.38;;;6.40;99.90;;;;;;5019695;28;20040;-67
2023/12/15 06:00:40;;;;;;;47.83;25.73;;;6.40;99.90;;;;;;5018403;28;20076;-68
2023/12/15 06:03:06;;;;;;;51.55;25.98;;;6.40;99.90;;;;;;5017239;28;20603;-68
2023/12/15 06:05:34;;;;;;;48.38;24.92;;;6.40;99.90;;;;;;5021133;28;20054;-68
2023/12/15 06:08:03;;;;;;;48.22;25.13;;;6.30;99.90;;;;;;5019336;28;20049;-68
2023/12/15 06:10:29;;;;;;;48.17;24.55;;;6.30;99.90;;;;;;5019796;28;20042;-68
2023/12/15 06:12:54;;;;;;;54.92;26.20;;;6.30;99.90;;;;;;5017441;28;20060;-68
2023/12/15 06:15:20;;;;;;;49.15;26.10;;;6.30;99.90;;;;;;5017051;28;20046;-67
2023/12/15 06:17:45;;;;;;;48.45;23.80;;;6.30;99.90;;;;;;5016371;28;20045;-68
2023/12/15 06:20:14;;;;;;;45.63;24.48;;;6.20;99.90;;;;;;5017257;28;20476;-68
2023/12/15 06:22:40;;;;;;;48.20;23.63;;;6.20;99.90;;;;;;5018634;28;20045;-68
2023/12/15 06:25:07;;;;;;;50.03;24.38;;;6.20;99.90;;;;;;5015866;28;20064;-68
2023/12/15 06:27:32;;;;;;;48.35;23.00;;;6.20;99.90;;;;;;5025376;28;20037;-68
2023/12/15 06:29:58;;;;;;;52.97;24.33;;;6.20;99.90;;;;;;5019086;28;20622;-67
2023/12/15 06:32:24;;;;;;;64.55;24.48;;;6.20;99.90;;;;;;5037705;28;20049;-68
2023/12/15 06:34:49;;;;;;;54.28;23.90;;;6.20;99.90;;;;;;5017622;28;20060;-68
2023/12/15 06:37:15;;;;;;;64.60;25.35;;;6.20;99.90;;;;;;5019603;28;20393;-68
2023/12/15 06:39:40;;;;;;;61.05;24.95;;;6.20;99.90;;;;;;5033872;28;20065;-68
2023/12/15 06:42:06;;;;;;;59.15;24.15;;;6.20;99.90;;;;;;5023968;28;20438;-67
2023/12/15 06:44:31;;;;;;;56.97;24.30;;;6.30;99.90;;;;;;5024368;28;20049;-68
2023/12/15 06:46:57;;;;;;;61.60;24.42;;;6.20;99.90;;;;;;5021057;28;20056;-67
2023/12/15 06:49:30;;;;;;;71.05;24.58;;;6.30;99.90;;;;;;5022321;28;20388;-67
2023/12/15 06:51:59;;;;;;;54.95;25.27;;;6.30;99.90;;;;;;5023162;28;20415;-68
2023/12/15 06:54:25;;;;;;;63.53;24.02;;;6.30;99.90;;;;;;5036538;28;20072;-68
2023/12/15 06:56:51;;;;;;;63.17;25.17;;;6.30;99.90;;;;;;5022556;28;20033;-68
2023/12/15 06:59:16;;;;;;;79.22;24.85;;;6.30;99.90;;;;;;5037450;28;20476;-68
2023/12/15 07:01:42;;;;;;;105.25;27.50;;;6.30;99.90;;;;;;5024427;28;20029;-68
2023/12/15 07:04:08;;;;;;;62.95;24.35;;;6.40;99.90;;;;;;5022708;28;20048;-67
2023/12/15 07:06:33;;;;;;;87.60;25.63;;;6.40;99.90;;;;;;5025132;28;20049;-68
2023/12/15 07:08:59;;;;;;;78.25;25.25;;;6.30;99.90;;;;;;5017781;28;20044;-68
2023/12/15 07:11:25;;;;;;;84.35;26.27;;;6.30;99.90;;;;;;5017739;28;20140;-67
2023/12/15 07:13:51;;;;;;;77.47;24.77;;;6.40;99.90;;;;;;5018603;28;20404;-67
2023/12/15 07:16:16;;;;;;;75.28;26.35;;;6.30;99.90;;;;;;5019442;28;20049;-67
2023/12/15 07:18:42;;;;;;;64.65;25.00;;;6.40;99.90;;;;;;5023344;28;20048;-67
2023/12/15 07:21:08;;;;;;;78.05;27.10;;;6.40;99.90;;;;;;5020000;28;20049;-67
2023/12/15 07:23:34;;;;;;;70.05;26.60;;;6.30;99.90;;;;;;5019975;28;20060;-67
2023/12/15 07:26:00;;;;;;;69.63;25.23;;;6.40;99.90;;;;;;5026082;28;20100;-67
2023/12/15 07:28:26;;;;;;;67.85;25.67;;;6.40;99.90;;;;;;5019100;28;20041;-67
2023/12/15 07:30:51;;;;;;;68.75;25.17;;;6.40;99.90;;;;;;5021054;28;20045;-67
2023/12/15 07:33:17;;;;;;;61.88;25.52;;;6.40;99.90;;;;;;5017562;28;20041;-67
2023/12/15 07:35:43;;;;;;;70.45;26.80;;;6.40;99.90;;;;;;5021827;28;20080;-67
2023/12/15 07:38:09;;;;;;;64.78;24.98;;;6.40;99.90;;;;;;5018557;28;20499;-67
2023/12/15 07:40:35;;;;;;;69.13;25.20;;;6.30;99.90;;;;;;5019515;28;20049;-67
2023/12/15 07:43:01;;;;;;;69.82;24.50;;;6.40;99.90;;;;;;5019848;28;20048;-67
2023/12/15 07:45:27;;;;;;;72.82;25.90;;;6.40;99.90;;;;;;5018439;28;20045;-67
2023/12/15 07:47:53;;;;;;;71.97;24.40;;;6.30;99.90;;;;;;5019839;28;20038;-67
2023/12/15 07:50:20;;;;;;;69.90;24.38;;;6.40;99.90;;;;;;5020682;28;20046;-67
2023/12/15 07:52:45;;;;;;;63.60;24.25;;;6.30;99.90;;;;;;5021241;28;20096;-67
2023/12/15 07:55:11;;;;;;;58.22;23.95;;;6.20;99.90;;;;;;5015233;28;20038;-67
2023/12/15 07:57:37;;;;;;;52.60;23.90;;;6.20;99.90;;;;;;5023590;28;20036;-67
2023/12/15 08:00:05;;;;;;;50.60;23.05;;;6.20;99.90;;;;;;5018575;28;20118;-67
2023/12/15 08:02:31;;;;;;;58.50;23.50;;;6.20;99.90;;;;;;5018894;28;20714;-67
2023/12/15 08:04:57;;;;;;;52.17;21.90;;;6.20;99.90;;;;;;5018253;28;20053;-67
2023/12/15 08:07:22;;;;;;;54.47;22.23;;;6.20;99.90;;;;;;5021553;28;20127;-67
2023/12/15 08:09:48;;;;;;;49.67;20.80;;;6.10;99.90;;;;;;5012920;28;20042;-67
2023/12/15 08:12:14;;;;;;;57.95;23.48;;;6.20;99.90;;;;;;5014461;28;20049;-67
2023/12/15 08:14:40;;;;;;;54.70;20.92;;;6.20;99.90;;;;;;5018600;28;20681;-67
2023/12/15 08:17:05;;;;;;;45.15;20.35;;;6.20;99.90;;;;;;5014713;28;20132;-67
2023/12/15 08:19:31;;;;;;;44.78;20.75;;;6.20;99.90;;;;;;5032877;28;20061;-67
2023/12/15 08:21:59;;;;;;;46.67;19.25;;;6.20;99.90;;;;;;5015980;28;20053;-67
2023/12/15 08:24:26;;;;;;;40.67;19.25;;;6.20;99.90;;;;;;5006251;28;20048;-67
2023/12/15 08:26:53;;;;;;;53.65;20.35;;;6.20;99.90;;;;;;5015056;28;20384;-67
2023/12/15 08:29:20;;;;;;;46.33;20.27;;;6.20;99.90;;;;;;5015682;28;20153;-67
2023/12/15 08:31:46;;;;;;;49.88;19.55;;;6.30;99.90;;;;;;5015619;28;20069;-67
2023/12/15 08:34:12;;;;;;;43.78;18.40;;;6.30;99.90;;;;;;5015657;28;20041;-67
2023/12/15 08:36:38;;;;;;;48.60;19.65;;;6.30;99.90;;;;;;5017546;28;20036;-66
2023/12/15 08:39:04;;;;;;;42.67;17.83;;;6.30;99.90;;;;;;5014245;28;20045;-67
2023/12/15 08:41:30;;;;;;;40.80;18.88;;;6.30;99.90;;;;;;5018820;28;20049;-67
2023/12/15 08:43:56;;;;;;;46.20;19.02;;;6.30;99.90;;;;;;5014646;28;20530;-67
2023/12/15 08:46:22;;;;;;;43.60;18.80;;;6.40;99.90;;;;;;5018014;28;20049;-66
2023/12/15 08:48:49;;;;;;;42.70;19.73;;;6.40;99.90;;;;;;5012249;28;20511;-67
2023/12/15 08:51:16;;;;;;;43.88;18.33;;;6.40;99.90;;;;;;5019054;28;20048;-67
2023/12/15 08:53:42;;;;;;;36.92;18.85;;;6.40;99.90;;;;;;4999139;28;20991;-67
2023/12/15 08:56:09;;;;;;;38.50;18.20;;;6.50;99.90;;;;;;5013002;28;20092;-67
2023/12/15 08:58:35;;;;;;;43.22;17.30;;;6.50;99.90;;;;;;5016809;28;20046;-66
2023/12/15 09:01:02;;;;;;;42.58;16.52;;;6.50;99.90;;;;;;5016525;28;20120;-66
2023/12/15 09:03:27;;;;;;;37.40;17.20;;;6.60;99.90;;;;;;5015267;28;20555;-67
2023/12/15 09:05:53;;;;;;;39.45;16.77;;;6.60;99.90;;;;;;5031293;28;20037;-67
2023/12/15 09:08:19;;;;;;;37.55;16.67;;;6.60;99.90;;;;;;5021149;28;20052;-67
2023/12/15 09:10:50;;;;;;;36.85;16.35;;;6.70;99.90;;;;;;5009941;28;20049;-67
2023/12/15 09:13:17;;;;;;;41.45;16.55;;;6.70;99.90;;;;;;5017137;28;20045;-67
2023/12/15 09:15:43;;;;;;;35.97;16.77;;;6.70;99.90;;;;;;5016399;28;20038;-67
2023/12/15 09:18:09;;;;;;;33.78;15.18;;;6.70;99.90;;;;;;5015030;28;20048;-66
2023/12/15 09:20:35;;;;;;;39.67;16.08;;;6.80;99.90;;;;;;5015368;28;20372;-67
2023/12/15 09:23:09;;;;;;;40.22;16.63;;;6.80;99.90;;;;;;5014216;28;20539;-67
2023/12/15 09:25:35;;;;;;;36.17;15.70;;;6.90;99.90;;;;;;5019790;28;20077;-67
2023/12/15 09:28:03;;;;;;;36.67;14.73;;;6.90;99.90;;;;;;5014981;28;20045;-67
2023/12/15 09:30:29;;;;;;;40.90;15.80;;;6.90;99.90;;;;;;5004828;28;20055;-66
2023/12/15 09:32:55;;;;;;;35.08;14.75;;;6.90;99.90;;;;;;5014658;28;20571;-67
2023/12/15 09:35:20;;;;;;;43.45;13.30;;;7.00;99.90;;;;;;5020946;28;20093;-67
2023/12/15 09:37:46;;;;;;;34.28;14.60;;;7.00;99.90;;;;;;5015303;28;20045;-67
2023/12/15 09:40:14;;;;;;;30.33;12.80;;;7.00;99.90;;;;;;5015626;28;20045;-66
2023/12/15 09:42:40;;;;;;;33.08;12.13;;;7.10;99.90;;;;;;5011762;28;20048;-66
2023/12/15 09:45:06;;;;;;;32.50;12.60;;;7.10;99.90;;;;;;5016154;28;20087;-67
2023/12/15 09:47:37;;;;;;;38.28;11.68;;;7.10;99.90;;;;;;5017586;28;20037;-67
2023/12/15 09:50:04;;;;;;;39.00;11.32;;;7.20;99.90;;;;;;5015587;28;20072;-67
2023/12/15 09:52:32;;;;;;;36.78;11.68;;;7.20;99.90;;;;;;5015386;28;20091;-67
2023/12/15 09:54:59;;;;;;;31.45;12.30;;;7.30;99.90;;;;;;5014316;28;20427;-66
2023/12/15 09:57:25;;;;;;;32.28;11.15;;;7.30;99.90;;;;;;5020443;28;20065;-67
2023/12/15 09:59:51;;;;;;;34.42;10.05;;;7.30;99.90;;;;;;5016186;28;20649;-67
2023/12/15 10:02:17;;;;;;;30.20;10.55;;;7.40;99.90;;;;;;5021308;28;20069;-66
2023/12/15 10:04:42;;;;;;;28.00;10.05;;;7.40;99.90;;;;;;5017364;28;20045;-67
2023/12/15 10:07:09;;;;;;;30.17;9.43;;;7.50;99.90;;;;;;5017064;28;20049;-69
2023/12/15 10:09:38;;;;;;;31.83;9.30;;;7.50;99.90;;;;;;5017443;28;20045;-67
2023/12/15 10:12:10;;;;;;;32.80;10.00;;;7.60;99.90;;;;;;5014594;28;20532;-67
2023/12/15 10:14:39;;;;;;;31.35;9.00;;;7.70;99.90;;;;;;5016935;28;20176;-67
2023/12/15 10:17:12;;;;;;;28.85;9.10;;;7.80;99.90;;;;;;5015176;28;20087;-67
2023/12/15 10:19:37;;;;;;;29.45;8.57;;;7.70;99.90;;;;;;5020449;28;20049;-67
2023/12/15 10:22:09;;;;;;;31.65;8.95;;;7.80;99.90;;;;;;5016234;28;20038;-67
2023/12/15 10:24:35;;;;;;;26.20;8.20;;;7.90;99.90;;;;;;5020835;28;20040;-67
2023/12/15 10:27:03;;;;;;;33.97;9.35;;;7.90;99.90;;;;;;5014994;28;20096;-67
2023/12/15 10:29:29;;;;;;;27.00;8.70;;;8.00;99.90;;;;;;5017175;28;20099;-67
2023/12/15 10:31:55;;;;;;;24.40;7.93;;;8.00;99.90;;;;;;5016900;28;20041;-67
2023/12/15 10:34:26;;;;;;;29.52;8.00;;;8.10;99.90;;;;;;5016534;28;20049;-67
2023/12/15 10:36:53;;;;;;;25.88;8.40;;;8.00;99.90;;;;;;5016393;28;20121;-67
2023/12/15 10:39:20;;;;;;;34.42;7.28;;;8.10;99.90;;;;;;5016239;28;20041;-67
2023/12/15 10:41:46;;;;;;;28.83;8.38;;;8.10;99.90;;;;;;5019446;28;20091;-67
2023/12/15 10:44:12;;;;;;;28.27;7.22;;;8.10;99.90;;;;;;4999339;28;20747;-67
2023/12/15 10:46:42;;;;;;;26.52;7.05;;;8.20;99.90;;;;;;5018482;28;20515;-67
2023/12/15 10:49:09;;;;;;;28.88;7.13;;;8.20;99.90;;;;;;5015396;28;20049;-67
2023/12/15 10:51:38;;;;;;;33.00;8.38;;;8.20;99.90;;;;;;5021921;28;20103;-67
2023/12/15 10:54:05;;;;;;;26.77;7.90;;;8.30;99.90;;;;;;5014981;28;20124;-67
2023/12/15 10:56:32;;;;;;;30.17;7.20;;;8.30;99.90;;;;;;5001815;28;20045;-67
2023/12/15 10:58:59;;;;;;;27.13;6.97;;;8.30;99.90;;;;;;5017889;28;20034;-67
2023/12/15 11:01:27;;;;;;;28.50;6.85;;;8.30;99.90;;;;;;5021859;28;20065;-67
2023/12/15 11:03:53;;;;;;;27.25;5.85;;;8.40;99.90;;;;;;5016887;28;20045;-67
2023/12/15 11:06:27;;;;;;;39.05;9.13;;;8.40;99.90;;;;;;5016165;28;20049;-67
2023/12/15 11:08:58;;;;;;;26.05;6.75;;;8.50;99.90;;;;;;5019706;28;20373;-67
2023/12/15 11:11:23;;;;;;;34.40;6.90;;;8.50;99.90;;;;;;5018088;28;20616;-66
2023/12/15 11:13:57;;;;;;;26.63;7.38;;;8.50;99.90;;;;;;5016458;28;20056;-67
2023/12/15 11:16:23;;;;;;;25.48;5.38;;;8.60;99.90;;;;;;5018105;28;20389;-67
2023/12/15 11:18:52;;;;;;;26.60;6.13;;;8.50;99.90;;;;;;5013681;28;20045;-67
2023/12/15 11:21:21;;;;;;;30.13;6.38;;;8.70;99.90;;;;;;5022388;28;20045;-66
2023/12/15 11:23:58;;;;;;;26.30;6.20;;;8.70;99.90;;;;;;5015958;28;20395;-67
2023/12/15 11:26:32;;;;;;;33.80;6.28;;;8.60;99.90;;;;;;5019917;28;20415;-67
2023/12/15 11:29:08;;;;;;;22.45;6.10;;;8.70;99.90;;;;;;5010467;28;20607;-67
2023/12/15 11:31:33;;;;;;;;;;;8.80;99.90;;;;;;5016968;28;20387;-67
2023/12/15 11:34:01;;;;;;;27.20;6.05;;;8.80;99.90;;;;;;5015529;28;19925;-67
2023/12/15 11:36:28;;;;;;;29.45;6.35;;;8.70;99.90;;;;;;5015306;28;20302;-67
2023/12/15 11:38:54;;;;;;;32.25;6.32;;;8.70;99.90;;;;;;5017604;28;20133;-67
2023/12/15 11:41:22;;;;;;;25.67;5.03;;;8.80;99.90;;;;;;5015356;28;20429;-67
2023/12/15 11:43:49;;;;;;;19.02;5.07;;;8.80;99.90;;;;;;5020407;28;20033;-67
2023/12/15 11:46:15;;;;;;;22.63;4.65;;;8.80;99.90;;;;;;4996862;28;20041;-67
2023/12/15 11:48:41;;;;;;;27.75;5.80;;;8.90;99.90;;;;;;5012396;28;20099;-67
2023/12/15 11:51:11;;;;;;;28.85;6.15;;;8.90;99.90;;;;;;5014581;28;20056;-67
2023/12/15 11:53:39;;;;;;;25.70;5.75;;;9.30;99.90;;;;;;5019781;28;20125;-67
2023/12/15 11:56:07;;;;;;;29.00;5.53;;;9.20;99.90;;;;;;5013734;28;20046;-67
2023/12/15 11:58:33;;;;;;;19.33;5.22;;;9.10;99.90;;;;;;5013230;28;20052;-67
2023/12/15 12:00:59;;;;;;;24.77;6.10;;;9.10;99.90;;;;;;4999379;28;20500;-67
2023/12/15 12:03:25;;;;;;;29.70;5.10;;;9.10;99.90;;;;;;5013040;28;20042;-67
2023/12/15 12:05:54;;;;;;;25.52;5.78;;;9.20;99.90;;;;;;5012240;28;20409;-67
2023/12/15 12:08:21;;;;;;;29.23;5.55;;;9.20;99.90;;;;;;5017324;28;20045;-67
2023/12/15 12:10:50;;;;;;;28.73;6.20;;;9.20;99.90;;;;;;5012328;28;20161;-67
2023/12/15 12:13:16;;;;;;;31.85;6.65;;;9.20;99.90;;;;;;5013998;28;20072;-67
2023/12/15 12:15:52;;;;;;;31.42;6.15;;;9.30;99.90;;;;;;5014675;28;20038;-67
2023/12/15 12:18:23;;;;;;;23.30;5.25;;;9.30;99.90;;;;;;5017389;28;20044;-67
2023/12/15 12:20:51;;;;;;;24.77;4.55;;;9.40;99.90;;;;;;5031302;28;20487;-67
2023/12/15 12:23:17;;;;;;;31.63;7.00;;;9.50;99.90;;;;;;5017707;28;20091;-68
2023/12/15 12:25:44;;;;;;;27.92;4.78;;;9.50;99.90;;;;;;5019374;28;20041;-68
2023/12/15 12:28:12;;;;;;;22.33;5.13;;;9.60;99.90;;;;;;5016728;28;20384;-67
2023/12/15 12:30:37;;;;;;;26.92;5.88;;;9.60;99.90;;;;;;5019003;28;20514;-67
2023/12/15 12:33:03;;;;;;;28.58;5.10;;;9.60;99.90;;;;;;5017036;28;20045;-68